createdAt,value
2022-09-24T00:04:45.793Z,20.67
2022-09-24T00:09:50.779Z,17.60
2022-09-24T00:14:55.776Z,19.58
2022-09-24T00:20:03.552Z,14.25
2022-09-24T00:25:25.032Z,14.07
2022-09-24T00:30:30.039Z,12.35
2022-09-24T00:35:38.559Z,14.25
2022-09-24T00:40:44.230Z,13.23
2022-09-24T00:45:49.254Z,12.23
2022-09-24T00:50:57.060Z,11.68
2022-09-24T00:56:04.896Z,14.13
2022-09-24T01:01:10.943Z,21.10
2022-09-24T01:06:19.135Z,13.82
2022-09-24T01:11:33.870Z,20.40
2022-09-24T01:16:42.286Z,12.63
2022-09-24T01:21:52.282Z,29.30
2022-09-24T01:27:07.604Z,15.02
2022-09-24T01:32:20.353Z,14.50
2022-09-24T01:37:26.608Z,15.73
2022-09-24T01:42:33.464Z,13.88
2022-09-24T01:47:43.907Z,14.27
2022-09-24T01:52:54.099Z,25.00
2022-09-24T01:58:03.553Z,16.38
2022-09-24T02:03:14.041Z,15.47
2022-09-24T02:08:23.098Z,14.48
2022-09-24T02:13:30.322Z,17.05
2022-09-24T02:18:41.847Z,15.63
2022-09-24T02:23:48.987Z,14.77
2022-09-24T02:28:54.380Z,17.08
2022-09-24T02:34:19.262Z,16.80
2022-09-24T02:39:24.753Z,19.83
2022-09-24T02:44:31.270Z,22.33
2022-09-24T02:49:39.003Z,42.47
2022-09-24T02:54:44.204Z,22.33
2022-09-24T02:59:49.397Z,33.17
2022-09-24T03:04:57.036Z,17.90
2022-09-24T03:10:02.964Z,17.08
2022-09-24T03:15:10.031Z,17.83
2022-09-24T03:20:17.712Z,28.88
2022-09-24T03:25:23.113Z,104.72
2022-09-24T03:30:40.501Z,147.90
2022-09-24T03:35:48.928Z,167.05
2022-09-24T03:40:54.100Z,162.15
2022-09-24T03:45:59.343Z,145.90
2022-09-24T03:51:11.235Z,154.63
2022-09-24T03:56:16.886Z,122.05
2022-09-24T04:01:22.241Z,48.00
2022-09-24T04:06:29.978Z,37.60
2022-09-24T04:11:35.443Z,32.28
2022-09-24T04:16:40.754Z,26.70
2022-09-24T04:21:48.458Z,20.52
2022-09-24T04:26:53.498Z,21.85
2022-09-24T04:31:58.975Z,22.05
2022-09-24T04:37:07.844Z,20.50
2022-09-24T04:42:12.844Z,31.50
2022-09-24T04:47:18.233Z,22.63
2022-09-24T04:52:26.199Z,24.27
2022-09-24T04:57:33.804Z,19.58
2022-09-24T05:02:38.922Z,28.38
2022-09-24T05:07:47.436Z,57.80
2022-09-24T05:12:52.427Z,92.43
2022-09-24T05:17:57.477Z,68.22
2022-09-24T05:23:05.862Z,57.22
2022-09-24T05:28:10.836Z,43.78
2022-09-24T05:33:15.855Z,25.25
2022-09-24T05:38:23.577Z,22.77
2022-09-24T05:43:29.470Z,22.85
2022-09-24T05:48:34.741Z,38.70
2022-09-24T05:53:42.502Z,72.63
2022-09-24T05:58:47.524Z,105.50
2022-09-24T06:03:52.535Z,106.53
2022-09-24T06:09:00.341Z,59.72
2022-09-24T06:14:06.166Z,53.80
2022-09-24T06:19:11.208Z,77.57
2022-09-24T06:24:18.852Z,98.00
2022-09-24T06:29:23.899Z,79.68
2022-09-24T06:34:28.997Z,65.28
2022-09-24T06:39:37.659Z,46.03
2022-09-24T06:44:42.762Z,17.05
2022-09-24T06:49:50.423Z,37.50
2022-09-24T06:54:58.391Z,15.43
2022-09-24T07:00:03.733Z,15.65
2022-09-24T07:05:10.374Z,38.25
2022-09-24T07:10:18.176Z,32.85
2022-09-24T07:15:23.252Z,12.07
2022-09-24T07:20:29.608Z,12.07
2022-09-24T07:25:38.429Z,13.77
2022-09-24T07:30:43.999Z,13.15
2022-09-24T07:35:49.113Z,12.27
2022-09-24T07:41:01.042Z,12.05
2022-09-24T07:46:07.601Z,10.07
2022-09-24T07:51:13.158Z,9.65
2022-09-24T07:56:20.812Z,11.68
2022-09-24T08:01:27.162Z,15.98
2022-09-24T08:06:38.261Z,8.25
2022-09-24T08:11:47.550Z,8.38
2022-09-24T08:16:52.550Z,9.20
2022-09-24T08:21:57.815Z,9.32
2022-09-24T08:27:05.435Z,11.90
2022-09-24T08:32:10.625Z,8.35
2022-09-24T08:37:15.724Z,8.75
2022-09-24T08:42:32.838Z,8.95
2022-09-24T08:47:44.735Z,14.25
2022-09-24T08:52:59.507Z,13.05
2022-09-24T08:58:18.495Z,10.25
2022-09-24T09:03:30.420Z,10.73
2022-09-24T09:09:01.769Z,14.07
2022-09-24T09:14:15.252Z,7.35
2022-09-24T09:19:20.788Z,12.15
2022-09-24T09:24:31.667Z,6.28
2022-09-24T09:29:39.467Z,4.65
2022-09-24T09:34:54.135Z,4.40
2022-09-24T09:40:10.380Z,4.63
2022-09-24T09:45:28.143Z,4.72
2022-09-24T09:50:38.108Z,6.18
2022-09-24T09:55:43.388Z,2.63
2022-09-24T10:00:51.331Z,6.55
2022-09-24T10:05:59.418Z,4.95
2022-09-24T10:11:05.239Z,3.35
2022-09-24T10:16:14.011Z,4.55
2022-09-24T10:21:36.271Z,5.38
2022-09-24T10:26:45.272Z,3.05
2022-09-24T10:31:53.312Z,2.60
2022-09-24T10:37:05.123Z,2.50
2022-09-24T10:42:26.787Z,2.28
2022-09-24T10:47:39.235Z,1.65
2022-09-24T10:52:49.359Z,2.58
2022-09-24T10:58:03.125Z,3.03
2022-09-24T11:03:35.584Z,2.75
2022-09-24T11:08:53.943Z,2.00
2022-09-24T11:14:06.978Z,5.65
2022-09-24T11:19:26.314Z,2.78
2022-09-24T11:24:49.800Z,3.15
2022-09-24T11:30:05.224Z,1.65
2022-09-24T11:35:41.296Z,2.45
2022-09-24T11:41:11.602Z,4.13
2022-09-24T11:46:26.245Z,2.55
2022-09-24T11:51:43.144Z,8.68
2022-09-24T11:56:51.277Z,7.88
2022-09-24T12:02:00.189Z,3.92
2022-09-24T12:07:14.117Z,4.93
2022-09-24T12:12:22.457Z,3.08
2022-09-24T12:17:31.557Z,2.55
2022-09-24T12:22:40.884Z,2.70
2022-09-24T12:27:47.214Z,3.03
2022-09-24T12:32:58.203Z,2.53
2022-09-24T12:38:11.074Z,3.10
2022-09-24T12:43:25.371Z,2.78
2022-09-24T12:48:31.126Z,3.28
2022-09-24T12:53:41.602Z,3.25
2022-09-24T12:58:49.550Z,4.07
2022-09-24T13:04:05.897Z,2.92
2022-09-24T13:09:37.643Z,3.63
2022-09-24T13:14:45.573Z,5.55
2022-09-24T13:19:52.184Z,5.45
2022-09-24T13:25:24.236Z,11.07
2022-09-24T13:30:38.491Z,4.47
2022-09-24T13:35:47.848Z,4.32
2022-09-24T14:39:02.624Z,10.10
2022-09-24T14:44:10.235Z,12.52
2022-09-24T14:49:22.647Z,4.40
2022-09-24T14:54:35.080Z,32.75
2022-09-24T14:59:41.830Z,41.80
2022-09-24T15:04:49.464Z,6.18
2022-09-24T15:09:58.982Z,175.60
2022-09-24T15:15:05.303Z,276.90
2022-09-24T15:20:13.425Z,34.70
2022-09-24T15:25:21.109Z,9.73
2022-09-24T15:30:27.784Z,3.90
2022-09-24T15:35:33.878Z,5.72
2022-09-24T15:40:43.273Z,5.57
2022-09-24T15:45:48.282Z,8.75
2022-09-24T15:50:53.330Z,9.43
2022-09-24T15:56:03.378Z,33.17
2022-09-24T16:01:08.765Z,8.55
2022-09-24T16:06:14.701Z,38.50
2022-09-24T16:11:22.399Z,17.27
2022-09-24T16:16:27.433Z,6.78
2022-09-24T16:21:33.034Z,8.52
2022-09-24T16:26:40.650Z,8.75
2022-09-24T16:31:45.640Z,7.65
2022-09-24T16:36:50.760Z,9.88
2022-09-24T16:41:58.388Z,8.63
2022-09-24T16:47:03.399Z,9.45
2022-09-24T16:52:08.375Z,8.30
2022-09-24T16:57:16.113Z,11.45
2022-09-24T17:02:21.203Z,9.70
2022-09-24T17:07:26.253Z,9.80
2022-09-24T17:12:33.892Z,10.15
2022-09-24T17:17:49.207Z,13.60
2022-09-24T17:22:55.068Z,21.83
2022-09-24T17:28:04.172Z,12.50
2022-09-24T17:33:31.562Z,12.20
2022-09-24T17:38:35.709Z,14.95
2022-09-24T17:43:44.304Z,24.42
2022-09-24T17:48:51.356Z,20.80
2022-09-24T17:53:58.034Z,13.10
2022-09-24T17:59:05.692Z,27.63
2022-09-24T18:04:13.989Z,40.65
2022-09-24T18:09:20.956Z,44.22
2022-09-24T18:14:28.984Z,19.50
2022-09-24T18:19:34.022Z,22.00
2022-09-24T18:24:39.083Z,16.23
2022-09-24T18:29:47.145Z,21.55
2022-09-24T18:34:52.126Z,18.60
2022-09-24T18:39:57.308Z,14.32
2022-09-24T18:45:05.953Z,18.50
2022-09-24T18:50:12.203Z,13.55
2022-09-24T18:55:17.325Z,14.07
2022-09-24T19:00:37.353Z,10.75
2022-09-24T19:05:42.350Z,11.05
2022-09-24T19:10:47.670Z,10.00
2022-09-24T19:15:55.317Z,8.85
2022-09-24T19:21:00.499Z,11.38
2022-09-24T19:26:05.883Z,13.70
2022-09-24T19:31:16.683Z,9.85
2022-09-24T19:36:22.437Z,10.95
2022-09-24T19:41:29.167Z,19.00
2022-09-24T19:46:37.316Z,14.80
2022-09-24T19:51:42.682Z,9.80
2022-09-24T19:56:47.671Z,10.60
2022-09-24T20:01:55.506Z,10.07
2022-09-24T20:07:05.646Z,8.40
2022-09-24T20:12:19.886Z,10.15
2022-09-24T20:17:27.573Z,9.95
2022-09-24T20:22:34.758Z,10.13
2022-09-24T20:27:55.613Z,9.95
2022-09-24T20:33:03.225Z,7.28
2022-09-24T20:38:08.296Z,8.95
2022-09-24T20:43:13.338Z,7.47
2022-09-24T20:48:21.145Z,7.97
2022-09-24T20:53:26.095Z,7.78
2022-09-24T20:58:31.213Z,10.32
2022-09-24T21:03:45.802Z,8.13
2022-09-24T21:08:51.301Z,11.50
2022-09-24T21:14:01.080Z,8.80
2022-09-24T21:19:09.044Z,8.38
2022-09-24T21:24:16.165Z,16.77
2022-09-24T21:29:22.584Z,6.68
2022-09-24T21:34:30.726Z,7.65
2022-09-24T21:39:36.112Z,7.75
2022-09-24T21:44:41.719Z,6.05
2022-09-24T21:49:49.419Z,8.23
2022-09-24T21:54:54.424Z,7.05
2022-09-24T22:00:10.353Z,5.15
2022-09-24T22:05:20.007Z,5.70
2022-09-24T22:10:25.843Z,6.53
2022-09-24T22:15:30.853Z,8.30
2022-09-24T22:20:44.646Z,7.43
2022-09-24T22:25:50.140Z,16.38
2022-09-24T22:30:55.739Z,77.72
2022-09-24T22:36:03.657Z,8.38
2022-09-24T22:41:11.159Z,6.05
2022-09-24T22:46:16.687Z,5.32
2022-09-24T22:51:24.626Z,6.55
2022-09-24T22:56:30.315Z,8.70
2022-09-24T23:01:37.127Z,5.90
2022-09-24T23:06:44.870Z,5.70
2022-09-24T23:11:49.867Z,6.22
2022-09-24T23:16:59.618Z,7.05
2022-09-24T23:22:07.584Z,7.22
2022-09-24T23:27:12.703Z,6.25
2022-09-24T23:32:18.222Z,9.45
2022-09-24T23:37:25.846Z,6.93
2022-09-24T23:42:31.542Z,6.63
2022-09-24T23:47:37.542Z,6.20
2022-09-24T23:52:45.153Z,6.15
2022-09-24T23:57:50.173Z,5.95
